createdAt,value
2022-08-25T00:03:08.815Z,-2.21
2022-08-25T00:08:11.627Z,-1.85
2022-08-25T00:13:14.869Z,-1.96
2022-08-25T00:18:20.072Z,-2.14
2022-08-25T00:23:23.331Z,-2.17
2022-08-25T00:28:26.238Z,-2.38
2022-08-25T00:33:31.697Z,-2.62
2022-08-25T00:38:34.548Z,-2.62
2022-08-25T00:43:46.565Z,-2.65
2022-08-25T00:48:54.420Z,-2.64
2022-08-25T00:53:57.620Z,-2.60
2022-08-25T00:59:01.079Z,-2.41
2022-08-25T01:04:07.842Z,-2.56
2022-08-25T01:09:12.144Z,-2.43
2022-08-25T01:14:20.178Z,-2.25
2022-08-25T01:19:28.195Z,-2.34
2022-08-25T01:24:39.019Z,-2.47
2022-08-25T01:29:41.992Z,-2.47
2022-08-25T01:34:46.911Z,-2.35
2022-08-25T01:39:51.602Z,-2.12
2022-08-25T01:44:54.849Z,-2.26
2022-08-25T01:49:57.755Z,-2.12
2022-08-25T01:55:02.329Z,-2.19
2022-08-25T02:00:07.083Z,-1.75
2022-08-25T02:05:10.766Z,-1.93
2022-08-25T02:10:15.429Z,-2.10
2022-08-25T02:15:18.585Z,-1.74
2022-08-25T02:20:21.636Z,-1.92
2022-08-25T02:25:28.784Z,-1.86
2022-08-25T02:30:31.865Z,-1.86
2022-08-25T02:35:35.080Z,-1.85
2022-08-25T02:40:39.466Z,-1.64
2022-08-25T02:45:42.393Z,-1.33
2022-08-25T02:50:47.563Z,-1.31
2022-08-25T02:55:52.144Z,-0.91
2022-08-25T03:00:56.838Z,-0.96
2022-08-25T03:06:00.122Z,-0.48
2022-08-25T03:11:04.569Z,-0.64
2022-08-25T03:16:11.422Z,-0.74
2022-08-25T03:21:16.291Z,-0.87
2022-08-25T03:26:40.438Z,-1.03
2022-08-25T03:31:45.144Z,-1.01
2022-08-25T03:36:50.581Z,-1.09
2022-08-25T03:41:55.017Z,-1.10
2022-08-25T03:46:58.098Z,-1.11
2022-08-25T03:52:04.237Z,-1.08
2022-08-25T03:57:09.832Z,-0.93
2022-08-25T04:02:12.846Z,-0.90
2022-08-25T04:07:15.775Z,-0.93
2022-08-25T04:12:20.059Z,-1.06
2022-08-25T04:17:26.269Z,-1.32
2022-08-25T04:22:30.011Z,-1.24
2022-08-25T04:27:34.781Z,-1.32
2022-08-25T04:32:37.963Z,-1.29
2022-08-25T04:37:41.004Z,-1.37
2022-08-25T04:42:45.664Z,-1.23
2022-08-25T04:47:54.836Z,-1.35
2022-08-25T04:52:58.234Z,-1.65
2022-08-25T04:58:03.114Z,-2.16
2022-08-25T05:03:06.218Z,-2.75
2022-08-25T05:08:10.464Z,-3.09
2022-08-25T05:13:15.791Z,-3.31
2022-08-25T05:18:19.596Z,-3.34
2022-08-25T05:23:23.905Z,-4.08
2022-08-25T05:28:28.153Z,-4.41
2022-08-25T05:33:32.996Z,-5.01
2022-08-25T05:38:36.160Z,-5.05
2022-08-25T05:43:42.502Z,-5.28
2022-08-25T05:48:45.671Z,-5.88
2022-08-25T05:53:50.104Z,-5.98
2022-08-25T05:58:54.776Z,118.69
2022-08-25T06:04:00.410Z,118.28
2022-08-25T06:09:05.458Z,118.73
2022-08-25T06:14:10.820Z,117.98
2022-08-25T06:19:13.772Z,118.16
2022-08-25T06:24:17.615Z,118.32
2022-08-25T06:29:22.250Z,117.78
2022-08-25T06:34:25.253Z,117.54
2022-08-25T06:39:30.626Z,116.97
2022-08-25T06:44:35.635Z,117.21
2022-08-25T06:49:38.919Z,117.12
2022-08-25T06:54:42.087Z,117.05
2022-08-25T06:59:47.047Z,116.68
2022-08-25T07:04:50.687Z,116.47
2022-08-25T07:09:53.590Z,116.33
2022-08-25T07:15:17.277Z,115.85
2022-08-25T07:20:21.030Z,116.19
2022-08-25T07:25:26.993Z,115.28
2022-08-25T07:30:32.382Z,115.14
2022-08-25T07:35:37.835Z,115.06
2022-08-25T07:40:42.833Z,114.12
2022-08-25T07:45:49.199Z,113.80
2022-08-25T07:50:52.594Z,114.32
2022-08-25T07:55:55.629Z,114.00
2022-08-25T08:00:59.997Z,112.98
2022-08-25T08:06:08.390Z,113.46
2022-08-25T08:11:16.138Z,113.61
2022-08-25T08:16:23.127Z,113.06
2022-08-25T08:21:29.120Z,111.77
2022-08-25T08:26:55.275Z,111.13
2022-08-25T08:31:57.891Z,111.91
2022-08-25T08:37:02.303Z,111.54
2022-08-25T08:42:20.101Z,112.57
2022-08-25T08:47:33.286Z,109.69
2022-08-25T08:52:43.537Z,108.79
2022-08-25T08:57:51.518Z,110.20
2022-08-25T09:03:02.910Z,110.42
2022-08-25T09:08:10.440Z,107.23
2022-08-25T09:13:26.107Z,109.72
2022-08-25T09:18:51.114Z,105.37
2022-08-25T09:24:11.780Z,107.49
2022-08-25T09:29:19.415Z,105.19
2022-08-25T09:34:29.157Z,98.74
2022-08-25T09:39:32.166Z,99.77
2022-08-25T09:44:43.850Z,105.67
2022-08-25T09:49:50.874Z,99.82
2022-08-25T09:54:55.260Z,100.38
2022-08-25T10:00:09.634Z,97.54
2022-08-25T10:05:35.693Z,87.33
2022-08-25T10:10:44.033Z,92.03
2022-08-25T10:15:48.653Z,88.02
2022-08-25T10:21:07.785Z,84.71
2022-08-25T10:26:17.191Z,93.16
2022-08-25T10:31:24.464Z,86.26
2022-08-25T10:36:39.011Z,83.40
2022-08-25T10:41:55.108Z,83.13
2022-08-25T10:47:15.920Z,82.40
2022-08-25T10:52:30.969Z,77.83
2022-08-25T10:57:41.762Z,79.35
2022-08-25T11:03:06.965Z,77.71
2022-08-25T11:08:17.515Z,76.01
2022-08-25T11:13:27.284Z,72.48
2022-08-25T11:18:32.617Z,78.94
2022-08-25T11:23:45.094Z,67.45
2022-08-25T11:28:56.592Z,72.93
2022-08-25T11:33:59.981Z,75.44
2022-08-25T11:39:31.169Z,71.19
2022-08-25T11:45:05.262Z,73.19
2022-08-25T11:50:23.730Z,73.54
2022-08-25T11:55:50.697Z,68.54
2022-08-25T12:00:55.611Z,65.96
2022-08-25T12:06:18.105Z,64.32
2022-08-25T12:11:46.387Z,64.45
2022-08-25T12:17:13.336Z,67.97
2022-08-25T12:22:44.524Z,65.99
2022-08-25T12:28:01.835Z,60.07
2022-08-25T12:33:12.003Z,58.02
2022-08-25T12:38:19.298Z,62.56
2022-08-25T12:43:33.286Z,60.93
2022-08-25T12:48:55.708Z,56.15
2022-08-25T12:54:11.691Z,67.48
2022-08-25T12:59:23.477Z,60.72
2022-08-25T13:05:02.593Z,64.63
2022-08-25T13:10:27.518Z,64.24
2022-08-25T13:15:38.644Z,59.27
2022-08-25T13:20:43.952Z,64.37
2022-08-25T13:25:50.644Z,57.48
2022-08-25T13:31:01.315Z,58.27
2022-08-25T13:36:23.295Z,60.23
2022-08-25T13:41:29.454Z,62.56
2022-08-25T13:46:35.480Z,62.36
2022-08-25T13:51:43.663Z,62.47
2022-08-25T13:56:46.577Z,59.76
2022-08-25T14:01:52.834Z,61.12
2022-08-25T14:07:26.445Z,60.22
2022-08-25T14:12:34.229Z,59.22
2022-08-25T14:17:42.746Z,63.27
2022-08-25T14:22:46.027Z,64.62
2022-08-25T14:28:13.761Z,61.63
2022-08-25T14:33:20.932Z,62.36
2022-08-25T14:38:24.629Z,58.47
2022-08-25T14:43:31.755Z,57.42
2022-08-25T14:48:42.903Z,59.70
2022-08-25T14:53:46.218Z,53.07
2022-08-25T14:58:53.973Z,51.22
2022-08-25T15:04:04.977Z,54.08
2022-08-25T15:09:14.155Z,51.59
2022-08-25T15:14:29.009Z,57.77
2022-08-25T15:19:37.655Z,53.81
2022-08-25T15:24:42.463Z,56.68
2022-08-25T15:29:45.308Z,57.77
2022-08-25T15:34:51.823Z,61.69
2022-08-25T15:39:55.202Z,60.20
2022-08-25T15:44:58.920Z,57.46
2022-08-25T15:50:07.643Z,57.69
2022-08-25T15:55:11.564Z,56.70
2022-08-25T16:00:16.706Z,56.82
2022-08-25T16:05:25.818Z,58.94
2022-08-25T16:10:29.228Z,57.45
2022-08-25T16:15:32.838Z,57.59
2022-08-25T16:20:37.475Z,57.70
2022-08-25T16:25:42.385Z,59.01
2022-08-25T16:30:52.989Z,59.86
2022-08-25T16:36:07.431Z,59.43
2022-08-25T16:41:14.261Z,59.86
2022-08-25T16:46:19.748Z,62.09
2022-08-25T16:51:25.576Z,62.12
2022-08-25T16:56:35.425Z,63.02
2022-08-25T17:01:41.982Z,64.20
2022-08-25T17:06:49.547Z,65.00
2022-08-25T17:11:57.028Z,66.63
2022-08-25T17:17:07.105Z,67.53
2022-08-25T17:22:16.025Z,70.62
2022-08-25T17:27:21.804Z,72.25
2022-08-25T17:32:30.190Z,73.97
2022-08-25T17:37:35.033Z,79.62
2022-08-25T17:42:38.320Z,82.23
2022-08-25T17:47:41.607Z,80.79
2022-08-25T17:52:46.318Z,77.90
2022-08-25T17:57:49.591Z,77.60
2022-08-25T18:02:52.405Z,82.50
2022-08-25T18:07:57.275Z,83.38
2022-08-25T18:13:02.521Z,87.28
2022-08-25T18:18:06.039Z,87.96
2022-08-25T18:23:10.816Z,90.61
2022-08-25T18:28:14.109Z,92.37
2022-08-25T18:33:19.198Z,95.36
2022-08-25T18:38:42.853Z,92.41
2022-08-25T18:43:46.137Z,95.37
2022-08-25T18:48:49.287Z,96.86
2022-08-25T18:53:59.138Z,97.69
2022-08-25T18:59:04.918Z,96.85
2022-08-25T19:04:10.739Z,93.54
2022-08-25T19:09:15.896Z,98.09
2022-08-25T19:14:19.422Z,95.46
2022-08-25T19:19:22.466Z,94.89
2022-08-25T19:24:28.816Z,96.14
2022-08-25T19:29:32.156Z,93.90
2022-08-25T19:34:42.182Z,95.51
2022-08-25T19:39:53.014Z,97.12
2022-08-25T19:44:56.264Z,94.80
2022-08-25T19:49:59.351Z,97.39
2022-08-25T19:55:04.625Z,99.47
2022-08-25T20:00:10.600Z,99.45
2022-08-25T20:05:14.378Z,96.25
2022-08-25T20:10:21.491Z,102.47
2022-08-25T20:15:24.702Z,102.53
2022-08-25T20:20:32.641Z,99.69
2022-08-25T20:25:42.157Z,103.58
2022-08-25T20:30:45.734Z,104.17
2022-08-25T20:35:48.906Z,107.86
2022-08-25T20:40:53.340Z,110.71
2022-08-25T20:46:00.781Z,112.29
2022-08-25T20:51:05.289Z,101.26
2022-08-25T20:56:10.942Z,100.10
2022-08-25T21:01:20.410Z,102.72
2022-08-25T21:06:26.092Z,101.86
2022-08-25T21:11:30.837Z,101.19
2022-08-25T21:16:38.315Z,105.46
2022-08-25T21:21:41.827Z,104.62
2022-08-25T21:26:51.059Z,110.39
2022-08-25T21:31:54.741Z,112.32
2022-08-25T21:36:58.307Z,111.65
2022-08-25T21:42:04.545Z,114.59
2022-08-25T21:47:07.786Z,118.08
2022-08-25T21:52:11.134Z,116.92
2022-08-25T21:57:19.189Z,117.40
2022-08-25T22:02:26.849Z,116.02
2022-08-25T22:07:34.430Z,-5.21
2022-08-25T22:12:45.786Z,118.50
2022-08-25T22:17:49.661Z,-1.61
2022-08-25T22:22:52.921Z,-1.37
2022-08-25T22:27:57.323Z,-2.51
2022-08-25T22:33:00.800Z,-2.77
2022-08-25T22:38:05.274Z,-0.46
2022-08-25T22:43:10.953Z,3.50
2022-08-25T22:48:14.299Z,5.29
2022-08-25T22:53:17.267Z,4.56
2022-08-25T22:58:22.257Z,7.49
2022-08-25T23:03:26.319Z,6.96
2022-08-25T23:08:38.931Z,5.92
2022-08-25T23:13:45.844Z,3.71
2022-08-25T23:18:49.260Z,7.95
2022-08-25T23:23:52.547Z,10.49
2022-08-25T23:28:57.475Z,10.98
2022-08-25T23:34:01.054Z,13.21
2022-08-25T23:39:06.657Z,14.57
2022-08-25T23:44:17.495Z,14.16
2022-08-25T23:49:23.157Z,11.88
2022-08-25T23:54:31.067Z,11.92
2022-08-25T23:59:36.161Z,12.02
